sensor_id;sensor_type;location;lat;lon;timestamp;P1;durP1;ratioP1;P2;durP2;ratioP2
44068;SDS011;29738;51.234;5.484;2022-09-01T00:01:16;16.52;;;7.13;;
44068;SDS011;29738;51.234;5.484;2022-09-01T00:03:49;13.68;;;6.28;;
44068;SDS011;29738;51.234;5.484;2022-09-01T00:06:20;11.98;;;6.75;;
44068;SDS011;29738;51.234;5.484;2022-09-01T00:08:58;10.80;;;5.47;;
44068;SDS011;29738;51.234;5.484;2022-09-01T00:11:25;12.50;;;5.35;;
44068;SDS011;29738;51.234;5.484;2022-09-01T00:13:52;10.32;;;4.68;;
44068;SDS011;29738;51.234;5.484;2022-09-01T00:16:19;13.10;;;5.43;;
44068;SDS011;29738;51.234;5.484;2022-09-01T00:18:47;8.57;;;4.32;;
44068;SDS011;29738;51.234;5.484;2022-09-01T00:21:16;6.50;;;3.90;;
44068;SDS011;29738;51.234;5.484;2022-09-01T00:23:43;8.25;;;3.70;;
44068;SDS011;29738;51.234;5.484;2022-09-01T00:26:09;9.82;;;4.47;;
44068;SDS011;29738;51.234;5.484;2022-09-01T00:28:35;8.23;;;3.45;;
44068;SDS011;29738;51.234;5.484;2022-09-01T00:31:02;7.88;;;3.30;;
44068;SDS011;29738;51.234;5.484;2022-09-01T00:33:29;6.20;;;3.05;;
44068;SDS011;29738;51.234;5.484;2022-09-01T00:35:54;6.90;;;3.22;;
44068;SDS011;29738;51.234;5.484;2022-09-01T00:38:20;9.10;;;3.22;;
44068;SDS011;29738;51.234;5.484;2022-09-01T00:40:46;6.65;;;2.78;;
44068;SDS011;29738;51.234;5.484;2022-09-01T00:43:13;5.82;;;2.88;;
44068;SDS011;29738;51.234;5.484;2022-09-01T00:45:42;7.78;;;3.35;;
44068;SDS011;29738;51.234;5.484;2022-09-01T00:48:08;6.65;;;2.90;;
44068;SDS011;29738;51.234;5.484;2022-09-01T00:50:33;9.35;;;3.55;;
44068;SDS011;29738;51.234;5.484;2022-09-01T00:53:00;6.82;;;3.38;;
44068;SDS011;29738;51.234;5.484;2022-09-01T00:55:29;7.13;;;3.03;;
44068;SDS011;29738;51.234;5.484;2022-09-01T00:57:57;7.55;;;3.13;;
44068;SDS011;29738;51.234;5.484;2022-09-01T01:00:26;6.95;;;2.75;;
44068;SDS011;29738;51.234;5.484;2022-09-01T01:02:54;6.93;;;3.33;;
44068;SDS011;29738;51.234;5.484;2022-09-01T01:05:28;6.53;;;3.08;;
44068;SDS011;29738;51.234;5.484;2022-09-01T01:07:57;5.47;;;2.80;;
44068;SDS011;29738;51.234;5.484;2022-09-01T01:10:25;7.75;;;3.70;;
44068;SDS011;29738;51.234;5.484;2022-09-01T01:12:57;7.88;;;3.10;;
44068;SDS011;29738;51.234;5.484;2022-09-01T01:15:26;6.75;;;3.33;;
44068;SDS011;29738;51.234;5.484;2022-09-01T01:17:53;7.38;;;3.92;;
44068;SDS011;29738;51.234;5.484;2022-09-01T01:20:19;8.77;;;3.90;;
44068;SDS011;29738;51.234;5.484;2022-09-01T01:23:23;10.98;;;5.00;;
44068;SDS011;29738;51.234;5.484;2022-09-01T01:26:01;11.05;;;6.15;;
44068;SDS011;29738;51.234;5.484;2022-09-01T01:28:30;12.02;;;5.55;;
44068;SDS011;29738;51.234;5.484;2022-09-01T01:31:08;12.27;;;6.32;;
44068;SDS011;29738;51.234;5.484;2022-09-01T01:33:40;12.07;;;5.45;;
44068;SDS011;29738;51.234;5.484;2022-09-01T01:36:16;12.07;;;6.05;;
44068;SDS011;29738;51.234;5.484;2022-09-01T01:38:51;12.90;;;6.93;;
44068;SDS011;29738;51.234;5.484;2022-09-01T01:41:18;17.45;;;7.97;;
44068;SDS011;29738;51.234;5.484;2022-09-01T01:43:44;18.00;;;8.93;;
44068;SDS011;29738;51.234;5.484;2022-09-01T01:46:13;13.68;;;8.50;;
44068;SDS011;29738;51.234;5.484;2022-09-01T01:48:42;16.55;;;9.07;;
44068;SDS011;29738;51.234;5.484;2022-09-01T01:51:08;18.33;;;8.55;;
44068;SDS011;29738;51.234;5.484;2022-09-01T01:53:35;18.98;;;9.30;;
44068;SDS011;29738;51.234;5.484;2022-09-01T01:56:02;18.55;;;9.98;;
44068;SDS011;29738;51.234;5.484;2022-09-01T01:58:28;18.88;;;9.75;;
44068;SDS011;29738;51.234;5.484;2022-09-01T02:00:55;22.13;;;9.73;;
44068;SDS011;29738;51.234;5.484;2022-09-01T02:03:23;18.75;;;10.15;;
44068;SDS011;29738;51.234;5.484;2022-09-01T02:05:53;20.52;;;10.77;;
44068;SDS011;29738;51.234;5.484;2022-09-01T02:08:20;20.50;;;9.90;;
44068;SDS011;29738;51.234;5.484;2022-09-01T02:10:51;24.30;;;10.88;;
44068;SDS011;29738;51.234;5.484;2022-09-01T02:13:20;21.38;;;11.55;;
44068;SDS011;29738;51.234;5.484;2022-09-01T02:15:56;21.38;;;11.57;;
44068;SDS011;29738;51.234;5.484;2022-09-01T02:18:29;22.38;;;11.40;;
44068;SDS011;29738;51.234;5.484;2022-09-01T02:21:01;23.13;;;11.93;;
44068;SDS011;29738;51.234;5.484;2022-09-01T02:23:33;23.95;;;13.07;;
44068;SDS011;29738;51.234;5.484;2022-09-01T02:26:00;23.27;;;12.98;;
44068;SDS011;29738;51.234;5.484;2022-09-01T02:28:26;27.83;;;12.52;;
44068;SDS011;29738;51.234;5.484;2022-09-01T02:30:56;21.33;;;12.13;;
44068;SDS011;29738;51.234;5.484;2022-09-01T02:33:24;23.38;;;12.73;;
44068;SDS011;29738;51.234;5.484;2022-09-01T02:35:55;25.90;;;13.13;;
44068;SDS011;29738;51.234;5.484;2022-09-01T02:38:26;23.58;;;13.40;;
44068;SDS011;29738;51.234;5.484;2022-09-01T02:40:56;23.13;;;12.63;;
44068;SDS011;29738;51.234;5.484;2022-09-01T02:43:23;19.90;;;12.52;;
44068;SDS011;29738;51.234;5.484;2022-09-01T02:45:52;21.67;;;12.57;;
44068;SDS011;29738;51.234;5.484;2022-09-01T02:48:24;21.58;;;13.18;;
44068;SDS011;29738;51.234;5.484;2022-09-01T02:51:16;23.98;;;12.68;;
44068;SDS011;29738;51.234;5.484;2022-09-01T02:53:45;24.17;;;12.52;;
44068;SDS011;29738;51.234;5.484;2022-09-01T02:56:17;23.52;;;13.20;;
44068;SDS011;29738;51.234;5.484;2022-09-01T02:58:44;27.15;;;13.15;;
44068;SDS011;29738;51.234;5.484;2022-09-01T03:01:18;21.08;;;12.35;;
44068;SDS011;29738;51.234;5.484;2022-09-01T03:03:49;24.38;;;13.02;;
44068;SDS011;29738;51.234;5.484;2022-09-01T03:06:17;23.38;;;12.77;;
44068;SDS011;29738;51.234;5.484;2022-09-01T03:08:48;27.75;;;14.05;;
44068;SDS011;29738;51.234;5.484;2022-09-01T03:11:15;22.25;;;12.68;;
44068;SDS011;29738;51.234;5.484;2022-09-01T03:13:41;22.85;;;13.63;;
44068;SDS011;29738;51.234;5.484;2022-09-01T03:16:08;26.92;;;14.07;;
44068;SDS011;29738;51.234;5.484;2022-09-01T03:18:35;28.40;;;13.23;;
44068;SDS011;29738;51.234;5.484;2022-09-01T03:21:01;23.15;;;12.52;;
44068;SDS011;29738;51.234;5.484;2022-09-01T03:23:29;23.13;;;13.35;;
44068;SDS011;29738;51.234;5.484;2022-09-01T03:25:57;22.65;;;12.35;;
44068;SDS011;29738;51.234;5.484;2022-09-01T03:28:23;21.60;;;12.38;;
44068;SDS011;29738;51.234;5.484;2022-09-01T03:30:50;23.50;;;12.32;;
44068;SDS011;29738;51.234;5.484;2022-09-01T03:33:19;21.42;;;12.52;;
44068;SDS011;29738;51.234;5.484;2022-09-01T03:35:46;22.85;;;12.43;;
44068;SDS011;29738;51.234;5.484;2022-09-01T03:38:14;23.88;;;11.75;;
44068;SDS011;29738;51.234;5.484;2022-09-01T03:40:45;27.02;;;13.25;;
44068;SDS011;29738;51.234;5.484;2022-09-01T03:43:11;23.80;;;14.20;;
44068;SDS011;29738;51.234;5.484;2022-09-01T03:45:38;26.48;;;14.68;;
44068;SDS011;29738;51.234;5.484;2022-09-01T03:48:05;24.17;;;14.52;;
44068;SDS011;29738;51.234;5.484;2022-09-01T03:50:37;26.40;;;14.40;;
44068;SDS011;29738;51.234;5.484;2022-09-01T03:53:13;27.88;;;15.27;;
44068;SDS011;29738;51.234;5.484;2022-09-01T03:55:42;28.80;;;16.75;;
44068;SDS011;29738;51.234;5.484;2022-09-01T03:58:10;27.17;;;15.05;;
44068;SDS011;29738;51.234;5.484;2022-09-01T04:00:40;32.65;;;17.45;;
44068;SDS011;29738;51.234;5.484;2022-09-01T04:03:08;36.42;;;18.65;;
44068;SDS011;29738;51.234;5.484;2022-09-01T04:05:37;32.50;;;19.35;;
44068;SDS011;29738;51.234;5.484;2022-09-01T04:08:07;29.98;;;18.55;;
44068;SDS011;29738;51.234;5.484;2022-09-01T04:10:44;37.90;;;19.48;;
44068;SDS011;29738;51.234;5.484;2022-09-01T04:13:19;40.53;;;21.42;;
44068;SDS011;29738;51.234;5.484;2022-09-01T04:15:46;38.88;;;19.13;;
44068;SDS011;29738;51.234;5.484;2022-09-01T04:18:12;39.30;;;22.33;;
44068;SDS011;29738;51.234;5.484;2022-09-01T04:20:49;36.97;;;21.00;;
44068;SDS011;29738;51.234;5.484;2022-09-01T04:23:20;38.70;;;20.83;;
44068;SDS011;29738;51.234;5.484;2022-09-01T04:25:55;36.67;;;20.27;;
44068;SDS011;29738;51.234;5.484;2022-09-01T04:28:24;35.90;;;20.15;;
44068;SDS011;29738;51.234;5.484;2022-09-01T04:30:58;37.85;;;21.42;;
44068;SDS011;29738;51.234;5.484;2022-09-01T04:33:30;37.22;;;20.35;;
44068;SDS011;29738;51.234;5.484;2022-09-01T04:36:16;32.55;;;19.92;;
44068;SDS011;29738;51.234;5.484;2022-09-01T04:38:53;31.00;;;18.90;;
44068;SDS011;29738;51.234;5.484;2022-09-01T04:41:22;41.35;;;21.23;;
44068;SDS011;29738;51.234;5.484;2022-09-01T04:43:50;36.70;;;20.50;;
44068;SDS011;29738;51.234;5.484;2022-09-01T04:46:20;40.58;;;20.77;;
44068;SDS011;29738;51.234;5.484;2022-09-01T04:48:46;37.00;;;19.58;;
44068;SDS011;29738;51.234;5.484;2022-09-01T04:51:15;38.25;;;20.13;;
44068;SDS011;29738;51.234;5.484;2022-09-01T04:53:41;33.10;;;19.55;;
44068;SDS011;29738;51.234;5.484;2022-09-01T04:56:13;40.42;;;20.15;;
44068;SDS011;29738;51.234;5.484;2022-09-01T04:58:44;38.72;;;19.55;;
44068;SDS011;29738;51.234;5.484;2022-09-01T05:01:21;37.47;;;20.38;;
44068;SDS011;29738;51.234;5.484;2022-09-01T05:03:49;35.45;;;19.42;;
44068;SDS011;29738;51.234;5.484;2022-09-01T05:06:23;43.17;;;20.48;;
44068;SDS011;29738;51.234;5.484;2022-09-01T05:08:49;39.85;;;21.17;;
44068;SDS011;29738;51.234;5.484;2022-09-01T05:11:16;41.15;;;20.67;;
44068;SDS011;29738;51.234;5.484;2022-09-01T05:13:43;48.30;;;19.92;;
44068;SDS011;29738;51.234;5.484;2022-09-01T05:16:12;33.42;;;19.08;;
44068;SDS011;29738;51.234;5.484;2022-09-01T05:18:43;29.53;;;18.60;;
44068;SDS011;29738;51.234;5.484;2022-09-01T05:21:12;33.13;;;16.80;;
44068;SDS011;29738;51.234;5.484;2022-09-01T05:23:40;28.92;;;16.23;;
44068;SDS011;29738;51.234;5.484;2022-09-01T05:26:17;23.15;;;15.07;;
44068;SDS011;29738;51.234;5.484;2022-09-01T05:28:47;27.02;;;15.05;;
44068;SDS011;29738;51.234;5.484;2022-09-01T05:31:18;23.95;;;14.52;;
44068;SDS011;29738;51.234;5.484;2022-09-01T05:33:44;24.50;;;13.82;;
44068;SDS011;29738;51.234;5.484;2022-09-01T05:36:13;21.65;;;13.82;;
44068;SDS011;29738;51.234;5.484;2022-09-01T05:38:41;22.77;;;14.15;;
44068;SDS011;29738;51.234;5.484;2022-09-01T05:41:09;24.92;;;13.00;;
44068;SDS011;29738;51.234;5.484;2022-09-01T05:43:39;20.65;;;12.32;;
44068;SDS011;29738;51.234;5.484;2022-09-01T05:46:10;25.17;;;13.23;;
44068;SDS011;29738;51.234;5.484;2022-09-01T05:48:36;21.27;;;11.77;;
44068;SDS011;29738;51.234;5.484;2022-09-01T05:51:07;22.60;;;12.63;;
44068;SDS011;29738;51.234;5.484;2022-09-01T05:53:34;20.15;;;12.20;;
44068;SDS011;29738;51.234;5.484;2022-09-01T05:56:05;21.77;;;12.38;;
44068;SDS011;29738;51.234;5.484;2022-09-01T05:58:33;21.40;;;12.45;;
44068;SDS011;29738;51.234;5.484;2022-09-01T06:01:00;22.30;;;12.73;;
44068;SDS011;29738;51.234;5.484;2022-09-01T06:03:27;24.13;;;13.38;;
44068;SDS011;29738;51.234;5.484;2022-09-01T06:05:54;19.17;;;11.30;;
44068;SDS011;29738;51.234;5.484;2022-09-01T06:08:25;22.65;;;11.73;;
44068;SDS011;29738;51.234;5.484;2022-09-01T06:10:53;21.23;;;10.63;;
44068;SDS011;29738;51.234;5.484;2022-09-01T06:13:19;15.93;;;8.77;;
44068;SDS011;29738;51.234;5.484;2022-09-01T06:15:48;13.95;;;7.80;;
44068;SDS011;29738;51.234;5.484;2022-09-01T06:18:14;14.63;;;8.05;;
44068;SDS011;29738;51.234;5.484;2022-09-01T06:20:42;15.70;;;7.75;;
44068;SDS011;29738;51.234;5.484;2022-09-01T06:23:11;14.02;;;6.93;;
44068;SDS011;29738;51.234;5.484;2022-09-01T06:25:43;14.80;;;7.05;;
44068;SDS011;29738;51.234;5.484;2022-09-01T06:28:14;11.23;;;5.95;;
44068;SDS011;29738;51.234;5.484;2022-09-01T06:30:41;12.70;;;6.68;;
44068;SDS011;29738;51.234;5.484;2022-09-01T06:33:09;10.32;;;6.38;;
44068;SDS011;29738;51.234;5.484;2022-09-01T06:35:38;11.60;;;5.35;;
44068;SDS011;29738;51.234;5.484;2022-09-01T06:38:11;10.05;;;5.35;;
44068;SDS011;29738;51.234;5.484;2022-09-01T06:40:41;8.75;;;5.30;;
44068;SDS011;29738;51.234;5.484;2022-09-01T06:43:07;8.55;;;4.88;;
44068;SDS011;29738;51.234;5.484;2022-09-01T06:45:40;10.20;;;5.00;;
44068;SDS011;29738;51.234;5.484;2022-09-01T06:48:07;8.63;;;5.10;;
44068;SDS011;29738;51.234;5.484;2022-09-01T06:50:33;8.77;;;4.50;;
44068;SDS011;29738;51.234;5.484;2022-09-01T06:53:00;7.93;;;4.88;;
44068;SDS011;29738;51.234;5.484;2022-09-01T06:55:34;8.93;;;4.93;;
44068;SDS011;29738;51.234;5.484;2022-09-01T06:58:06;8.38;;;4.50;;
44068;SDS011;29738;51.234;5.484;2022-09-01T07:00:35;9.93;;;4.72;;
44068;SDS011;29738;51.234;5.484;2022-09-01T07:03:07;9.15;;;5.13;;
44068;SDS011;29738;51.234;5.484;2022-09-01T07:05:45;9.25;;;4.70;;
44068;SDS011;29738;51.234;5.484;2022-09-01T07:08:13;8.35;;;4.90;;
44068;SDS011;29738;51.234;5.484;2022-09-01T07:10:47;7.50;;;5.05;;
44068;SDS011;29738;51.234;5.484;2022-09-01T07:13:17;8.27;;;5.00;;
44068;SDS011;29738;51.234;5.484;2022-09-01T07:15:50;9.98;;;4.70;;
44068;SDS011;29738;51.234;5.484;2022-09-01T07:18:21;8.65;;;5.20;;
44068;SDS011;29738;51.234;5.484;2022-09-01T07:20:52;9.02;;;5.07;;
44068;SDS011;29738;51.234;5.484;2022-09-01T07:23:18;10.30;;;5.70;;
44068;SDS011;29738;51.234;5.484;2022-09-01T07:25:46;9.75;;;5.00;;
44068;SDS011;29738;51.234;5.484;2022-09-01T07:28:14;11.20;;;4.93;;
44068;SDS011;29738;51.234;5.484;2022-09-01T07:30:42;9.27;;;4.95;;
44068;SDS011;29738;51.234;5.484;2022-09-01T07:33:13;8.00;;;4.32;;
44068;SDS011;29738;51.234;5.484;2022-09-01T07:35:40;5.95;;;3.33;;
44068;SDS011;29738;51.234;5.484;2022-09-01T07:38:07;9.13;;;3.80;;
44068;SDS011;29738;51.234;5.484;2022-09-01T07:40:37;6.25;;;3.10;;
44068;SDS011;29738;51.234;5.484;2022-09-01T07:43:06;7.75;;;3.50;;
44068;SDS011;29738;51.234;5.484;2022-09-01T07:45:46;6.38;;;3.60;;
44068;SDS011;29738;51.234;5.484;2022-09-01T07:48:13;7.00;;;3.47;;
44068;SDS011;29738;51.234;5.484;2022-09-01T07:50:42;5.75;;;3.25;;
44068;SDS011;29738;51.234;5.484;2022-09-01T07:53:11;8.07;;;3.20;;
44068;SDS011;29738;51.234;5.484;2022-09-01T07:55:42;5.72;;;3.25;;
44068;SDS011;29738;51.234;5.484;2022-09-01T07:58:11;7.35;;;3.35;;
44068;SDS011;29738;51.234;5.484;2022-09-01T08:00:38;9.32;;;3.75;;
44068;SDS011;29738;51.234;5.484;2022-09-01T08:03:07;8.35;;;3.45;;
44068;SDS011;29738;51.234;5.484;2022-09-01T08:05:33;5.10;;;2.95;;
44068;SDS011;29738;51.234;5.484;2022-09-01T08:07:59;6.00;;;3.25;;
44068;SDS011;29738;51.234;5.484;2022-09-01T08:10:25;6.10;;;3.60;;
44068;SDS011;29738;51.234;5.484;2022-09-01T08:12:51;6.63;;;3.40;;
44068;SDS011;29738;51.234;5.484;2022-09-01T08:15:17;6.63;;;3.38;;
44068;SDS011;29738;51.234;5.484;2022-09-01T08:17:43;5.65;;;3.20;;
44068;SDS011;29738;51.234;5.484;2022-09-01T08:20:10;7.30;;;3.88;;
44068;SDS011;29738;51.234;5.484;2022-09-01T08:22:36;5.40;;;3.03;;
44068;SDS011;29738;51.234;5.484;2022-09-01T08:25:04;7.28;;;3.45;;
44068;SDS011;29738;51.234;5.484;2022-09-01T08:27:32;6.10;;;3.03;;
44068;SDS011;29738;51.234;5.484;2022-09-01T08:30:00;6.88;;;3.38;;
44068;SDS011;29738;51.234;5.484;2022-09-01T08:32:31;6.57;;;3.40;;
44068;SDS011;29738;51.234;5.484;2022-09-01T08:34:57;6.13;;;3.65;;
44068;SDS011;29738;51.234;5.484;2022-09-01T08:37:23;7.13;;;3.70;;
44068;SDS011;29738;51.234;5.484;2022-09-01T08:39:49;6.82;;;3.70;;
44068;SDS011;29738;51.234;5.484;2022-09-01T08:47:39;7.55;;;3.60;;
44068;SDS011;29738;51.234;5.484;2022-09-01T08:50:05;6.30;;;3.20;;
44068;SDS011;29738;51.234;5.484;2022-09-01T08:52:34;7.75;;;3.80;;
44068;SDS011;29738;51.234;5.484;2022-09-01T08:57:45;6.03;;;3.42;;
44068;SDS011;29738;51.234;5.484;2022-09-01T09:00:16;6.40;;;3.50;;
44068;SDS011;29738;51.234;5.484;2022-09-01T09:05:42;8.52;;;3.97;;
44068;SDS011;29738;51.234;5.484;2022-09-01T09:11:14;8.00;;;3.42;;
44068;SDS011;29738;51.234;5.484;2022-09-01T09:16:19;6.47;;;3.55;;
44068;SDS011;29738;51.234;5.484;2022-09-01T09:18:51;8.25;;;3.60;;
44068;SDS011;29738;51.234;5.484;2022-09-01T09:21:39;7.45;;;3.65;;
44068;SDS011;29738;51.234;5.484;2022-09-01T09:24:23;6.68;;;3.28;;
44068;SDS011;29738;51.234;5.484;2022-09-01T09:26:55;7.63;;;3.10;;
44068;SDS011;29738;51.234;5.484;2022-09-01T09:29:26;7.05;;;2.80;;
44068;SDS011;29738;51.234;5.484;2022-09-01T09:32:00;7.70;;;3.13;;
44068;SDS011;29738;51.234;5.484;2022-09-01T09:34:35;6.45;;;3.50;;
44068;SDS011;29738;51.234;5.484;2022-09-01T09:40:01;5.28;;;2.65;;
44068;SDS011;29738;51.234;5.484;2022-09-01T09:42:38;5.85;;;3.17;;
44068;SDS011;29738;51.234;5.484;2022-09-01T09:45:23;5.68;;;2.60;;
44068;SDS011;29738;51.234;5.484;2022-09-01T09:48:07;5.50;;;2.78;;
44068;SDS011;29738;51.234;5.484;2022-09-01T09:50:36;5.55;;;2.17;;
44068;SDS011;29738;51.234;5.484;2022-09-01T09:58:19;4.97;;;2.70;;
44068;SDS011;29738;51.234;5.484;2022-09-01T10:00:59;9.07;;;2.90;;
44068;SDS011;29738;51.234;5.484;2022-09-01T10:03:59;5.50;;;2.85;;
44068;SDS011;29738;51.234;5.484;2022-09-01T10:09:32;5.13;;;2.47;;
44068;SDS011;29738;51.234;5.484;2022-09-01T10:12:02;5.63;;;2.13;;
44068;SDS011;29738;51.234;5.484;2022-09-01T10:14:37;6.57;;;2.30;;
44068;SDS011;29738;51.234;5.484;2022-09-01T10:17:28;5.07;;;2.20;;
44068;SDS011;29738;51.234;5.484;2022-09-01T10:19:56;6.07;;;2.00;;
44068;SDS011;29738;51.234;5.484;2022-09-01T10:22:30;4.97;;;2.08;;
44068;SDS011;29738;51.234;5.484;2022-09-01T10:24:57;5.05;;;2.40;;
44068;SDS011;29738;51.234;5.484;2022-09-01T10:27:31;4.93;;;2.00;;
44068;SDS011;29738;51.234;5.484;2022-09-01T10:30:04;3.60;;;1.70;;
44068;SDS011;29738;51.234;5.484;2022-09-01T10:32:41;6.13;;;1.90;;
44068;SDS011;29738;51.234;5.484;2022-09-01T10:35:15;6.10;;;2.05;;
44068;SDS011;29738;51.234;5.484;2022-09-01T10:37:45;3.78;;;1.50;;
44068;SDS011;29738;51.234;5.484;2022-09-01T10:40:57;3.88;;;1.77;;
44068;SDS011;29738;51.234;5.484;2022-09-01T10:45:47;3.25;;;1.50;;
44068;SDS011;29738;51.234;5.484;2022-09-01T10:50:46;4.10;;;1.73;;
44068;SDS011;29738;51.234;5.484;2022-09-01T10:58:38;3.60;;;1.48;;
44068;SDS011;29738;51.234;5.484;2022-09-01T11:01:09;5.47;;;1.90;;
44068;SDS011;29738;51.234;5.484;2022-09-01T11:03:35;3.80;;;1.70;;
44068;SDS011;29738;51.234;5.484;2022-09-01T11:06:04;4.45;;;1.70;;
44068;SDS011;29738;51.234;5.484;2022-09-01T11:16:24;4.10;;;1.95;;
44068;SDS011;29738;51.234;5.484;2022-09-01T11:22:08;3.35;;;1.38;;
44068;SDS011;29738;51.234;5.484;2022-09-01T11:27:11;3.60;;;1.60;;
44068;SDS011;29738;51.234;5.484;2022-09-01T11:30:18;3.60;;;1.65;;
44068;SDS011;29738;51.234;5.484;2022-09-01T11:32:47;4.00;;;1.70;;
44068;SDS011;29738;51.234;5.484;2022-09-01T11:35:18;3.72;;;1.90;;
44068;SDS011;29738;51.234;5.484;2022-09-01T11:37:51;5.07;;;1.70;;
44068;SDS011;29738;51.234;5.484;2022-09-01T11:40:21;3.97;;;2.08;;
44068;SDS011;29738;51.234;5.484;2022-09-01T11:42:50;3.78;;;1.90;;
44068;SDS011;29738;51.234;5.484;2022-09-01T11:45:22;4.53;;;1.50;;
44068;SDS011;29738;51.234;5.484;2022-09-01T11:47:56;3.50;;;1.60;;
44068;SDS011;29738;51.234;5.484;2022-09-01T11:52:53;4.32;;;1.70;;
44068;SDS011;29738;51.234;5.484;2022-09-01T11:58:13;3.72;;;1.50;;
44068;SDS011;29738;51.234;5.484;2022-09-01T12:00:56;3.50;;;1.42;;
44068;SDS011;29738;51.234;5.484;2022-09-01T12:03:35;4.30;;;1.65;;
44068;SDS011;29738;51.234;5.484;2022-09-01T12:06:03;4.25;;;1.60;;
44068;SDS011;29738;51.234;5.484;2022-09-01T12:08:32;4.00;;;1.60;;
44068;SDS011;29738;51.234;5.484;2022-09-01T12:13:37;4.25;;;1.40;;
44068;SDS011;29738;51.234;5.484;2022-09-01T12:16:06;3.85;;;1.48;;
44068;SDS011;29738;51.234;5.484;2022-09-01T12:18:44;4.50;;;1.50;;
44068;SDS011;29738;51.234;5.484;2022-09-01T12:21:26;3.55;;;1.25;;
44068;SDS011;29738;51.234;5.484;2022-09-01T12:26:43;4.38;;;1.40;;
44068;SDS011;29738;51.234;5.484;2022-09-01T12:29:10;2.90;;;1.20;;
44068;SDS011;29738;51.234;5.484;2022-09-01T12:31:40;4.07;;;1.35;;
44068;SDS011;29738;51.234;5.484;2022-09-01T12:39:54;5.78;;;1.50;;
44068;SDS011;29738;51.234;5.484;2022-09-01T12:42:23;7.35;;;1.30;;
44068;SDS011;29738;51.234;5.484;2022-09-01T12:44:57;2.95;;;1.10;;
44068;SDS011;29738;51.234;5.484;2022-09-01T12:52:27;4.05;;;1.30;;
44068;SDS011;29738;51.234;5.484;2022-09-01T12:55:07;3.60;;;1.30;;
44068;SDS011;29738;51.234;5.484;2022-09-01T12:57:39;4.72;;;1.50;;
44068;SDS011;29738;51.234;5.484;2022-09-01T13:00:17;3.25;;;1.27;;
44068;SDS011;29738;51.234;5.484;2022-09-01T13:03:04;5.63;;;1.40;;
44068;SDS011;29738;51.234;5.484;2022-09-01T13:05:38;4.65;;;1.48;;
44068;SDS011;29738;51.234;5.484;2022-09-01T13:08:10;3.50;;;1.33;;
44068;SDS011;29738;51.234;5.484;2022-09-01T13:10:39;3.95;;;1.10;;
44068;SDS011;29738;51.234;5.484;2022-09-01T13:13:11;2.97;;;1.10;;
44068;SDS011;29738;51.234;5.484;2022-09-01T13:15:38;4.88;;;1.30;;
44068;SDS011;29738;51.234;5.484;2022-09-01T13:18:06;4.70;;;1.40;;
44068;SDS011;29738;51.234;5.484;2022-09-01T13:20:33;4.50;;;1.40;;
44068;SDS011;29738;51.234;5.484;2022-09-01T13:22:59;5.70;;;1.20;;
44068;SDS011;29738;51.234;5.484;2022-09-01T13:25:25;10.55;;;2.90;;
44068;SDS011;29738;51.234;5.484;2022-09-01T13:27:51;3.47;;;1.13;;
44068;SDS011;29738;51.234;5.484;2022-09-01T13:30:19;3.55;;;1.50;;
44068;SDS011;29738;51.234;5.484;2022-09-01T13:32:47;5.97;;;1.75;;
44068;SDS011;29738;51.234;5.484;2022-09-01T13:35:15;4.00;;;1.13;;
44068;SDS011;29738;51.234;5.484;2022-09-01T13:37:43;3.17;;;1.25;;
44068;SDS011;29738;51.234;5.484;2022-09-01T13:40:10;3.80;;;1.35;;
44068;SDS011;29738;51.234;5.484;2022-09-01T13:42:40;3.03;;;1.10;;
44068;SDS011;29738;51.234;5.484;2022-09-01T13:45:08;2.63;;;1.10;;
44068;SDS011;29738;51.234;5.484;2022-09-01T13:47:37;4.60;;;1.50;;
44068;SDS011;29738;51.234;5.484;2022-09-01T13:50:04;4.80;;;1.48;;
44068;SDS011;29738;51.234;5.484;2022-09-01T13:52:30;3.75;;;1.35;;
44068;SDS011;29738;51.234;5.484;2022-09-01T13:54:57;5.07;;;1.77;;
44068;SDS011;29738;51.234;5.484;2022-09-01T13:57:22;3.40;;;1.30;;
44068;SDS011;29738;51.234;5.484;2022-09-01T13:59:48;5.25;;;1.40;;
44068;SDS011;29738;51.234;5.484;2022-09-01T14:02:14;3.53;;;1.27;;
44068;SDS011;29738;51.234;5.484;2022-09-01T14:04:40;3.03;;;1.23;;
44068;SDS011;29738;51.234;5.484;2022-09-01T14:07:06;8.52;;;1.30;;
44068;SDS011;29738;51.234;5.484;2022-09-01T14:09:32;3.33;;;1.35;;
44068;SDS011;29738;51.234;5.484;2022-09-01T14:11:58;3.95;;;1.40;;
44068;SDS011;29738;51.234;5.484;2022-09-01T14:14:24;3.38;;;1.33;;
44068;SDS011;29738;51.234;5.484;2022-09-01T14:16:49;5.35;;;1.30;;
44068;SDS011;29738;51.234;5.484;2022-09-01T14:19:15;4.22;;;1.42;;
44068;SDS011;29738;51.234;5.484;2022-09-01T14:21:41;4.05;;;1.23;;
44068;SDS011;29738;51.234;5.484;2022-09-01T14:24:08;3.65;;;1.20;;
44068;SDS011;29738;51.234;5.484;2022-09-01T14:26:33;5.15;;;1.60;;
44068;SDS011;29738;51.234;5.484;2022-09-01T14:28:59;4.10;;;1.40;;
44068;SDS011;29738;51.234;5.484;2022-09-01T14:31:26;4.13;;;1.10;;
44068;SDS011;29738;51.234;5.484;2022-09-01T14:33:53;3.58;;;1.48;;
44068;SDS011;29738;51.234;5.484;2022-09-01T14:36:20;3.15;;;1.20;;
44068;SDS011;29738;51.234;5.484;2022-09-01T14:38:48;3.30;;;1.25;;
44068;SDS011;29738;51.234;5.484;2022-09-01T14:41:15;3.20;;;1.13;;
44068;SDS011;29738;51.234;5.484;2022-09-01T14:43:45;8.75;;;1.90;;
44068;SDS011;29738;51.234;5.484;2022-09-01T14:46:12;4.13;;;1.30;;
44068;SDS011;29738;51.234;5.484;2022-09-01T14:48:38;3.60;;;1.15;;
44068;SDS011;29738;51.234;5.484;2022-09-01T14:51:05;4.05;;;1.30;;
44068;SDS011;29738;51.234;5.484;2022-09-01T14:53:32;2.83;;;1.25;;
44068;SDS011;29738;51.234;5.484;2022-09-01T14:55:58;2.95;;;1.00;;
44068;SDS011;29738;51.234;5.484;2022-09-01T14:58:25;8.38;;;1.38;;
44068;SDS011;29738;51.234;5.484;2022-09-01T15:00:52;3.40;;;1.30;;
44068;SDS011;29738;51.234;5.484;2022-09-01T15:03:24;3.15;;;1.30;;
44068;SDS011;29738;51.234;5.484;2022-09-01T15:05:51;3.25;;;1.20;;
44068;SDS011;29738;51.234;5.484;2022-09-01T15:08:18;3.00;;;1.33;;
44068;SDS011;29738;51.234;5.484;2022-09-01T15:10:45;3.08;;;1.30;;
44068;SDS011;29738;51.234;5.484;2022-09-01T15:13:11;3.05;;;1.17;;
44068;SDS011;29738;51.234;5.484;2022-09-01T15:15:38;3.63;;;1.50;;
44068;SDS011;29738;51.234;5.484;2022-09-01T15:18:04;4.72;;;1.48;;
44068;SDS011;29738;51.234;5.484;2022-09-01T15:20:30;4.40;;;1.70;;
44068;SDS011;29738;51.234;5.484;2022-09-01T15:23:16;3.85;;;1.48;;
44068;SDS011;29738;51.234;5.484;2022-09-01T15:25:45;3.60;;;1.35;;
44068;SDS011;29738;51.234;5.484;2022-09-01T15:28:11;4.28;;;1.40;;
44068;SDS011;29738;51.234;5.484;2022-09-01T15:30:38;3.70;;;1.50;;
44068;SDS011;29738;51.234;5.484;2022-09-01T15:33:05;3.28;;;1.27;;
44068;SDS011;29738;51.234;5.484;2022-09-01T15:35:32;3.72;;;1.27;;
44068;SDS011;29738;51.234;5.484;2022-09-01T15:55:39;3.78;;;1.50;;
44068;SDS011;29738;51.234;5.484;2022-09-01T15:58:06;6.90;;;3.17;;
44068;SDS011;29738;51.234;5.484;2022-09-01T16:00:33;9.60;;;4.97;;
44068;SDS011;29738;51.234;5.484;2022-09-01T16:02:59;4.57;;;2.08;;
44068;SDS011;29738;51.234;5.484;2022-09-01T16:05:28;3.15;;;1.40;;
44068;SDS011;29738;51.234;5.484;2022-09-01T16:07:55;3.88;;;1.90;;
44068;SDS011;29738;51.234;5.484;2022-09-01T16:10:22;4.93;;;2.78;;
44068;SDS011;29738;51.234;5.484;2022-09-01T16:12:48;4.18;;;1.70;;
44068;SDS011;29738;51.234;5.484;2022-09-01T16:15:16;3.63;;;1.63;;
44068;SDS011;29738;51.234;5.484;2022-09-01T16:20:44;4.13;;;1.80;;
44068;SDS011;29738;51.234;5.484;2022-09-01T16:23:20;3.38;;;1.50;;
44068;SDS011;29738;51.234;5.484;2022-09-01T16:25:48;4.13;;;1.70;;
44068;SDS011;29738;51.234;5.484;2022-09-01T16:28:22;4.22;;;2.08;;